createdAt,value
2023-03-29T00:02:13.253Z,0.50
2023-03-29T00:04:42.483Z,1.90
2023-03-29T00:07:10.749Z,0.50
2023-03-29T00:09:37.389Z,0.40
2023-03-29T00:12:05.329Z,0.60
2023-03-29T00:14:32.095Z,1.70
2023-03-29T00:16:59.202Z,0.70
2023-03-29T00:19:26.179Z,3.00
2023-03-29T00:21:52.853Z,1.17
2023-03-29T00:24:21.219Z,0.77
2023-03-29T00:26:48.374Z,0.57
2023-03-29T00:29:15.126Z,1.13
2023-03-29T00:31:41.779Z,1.83
2023-03-29T00:34:08.454Z,1.00
2023-03-29T00:36:35.158Z,0.90
2023-03-29T00:39:01.783Z,4.97
2023-03-29T00:41:28.520Z,2.40
2023-03-29T00:44:02.329Z,0.75
2023-03-29T00:46:31.696Z,0.95
2023-03-29T00:49:14.338Z,1.38
2023-03-29T00:51:42.680Z,0.50
2023-03-29T00:54:15.184Z,0.70
2023-03-29T00:56:47.523Z,0.70
2023-03-29T00:59:22.378Z,0.40
2023-03-29T01:01:57.382Z,0.95
2023-03-29T01:04:53.762Z,0.40
2023-03-29T01:07:28.444Z,0.93
2023-03-29T01:10:05.348Z,1.05
2023-03-29T01:12:37.391Z,1.75
2023-03-29T01:15:09.969Z,0.60
2023-03-29T01:17:37.369Z,0.75
2023-03-29T01:20:14.486Z,1.60
2023-03-29T01:23:04.194Z,0.50
2023-03-29T01:25:49.401Z,3.70
2023-03-29T01:28:23.406Z,3.05
2023-03-29T01:31:02.009Z,3.10
2023-03-29T01:33:34.185Z,0.50
2023-03-29T01:36:14.698Z,0.93
2023-03-29T01:38:48.558Z,0.70
2023-03-29T01:43:45.945Z,1.10
2023-03-29T01:46:24.900Z,1.30
2023-03-29T01:49:02.189Z,0.60
2023-03-29T01:51:40.473Z,1.10
2023-03-29T01:54:23.280Z,0.65
2023-03-29T01:56:52.364Z,0.70
2023-03-29T01:59:23.840Z,0.50
2023-03-29T02:01:55.225Z,0.50
2023-03-29T02:04:27.902Z,1.02
2023-03-29T02:06:57.054Z,0.50
2023-03-29T02:09:23.945Z,1.33
2023-03-29T02:11:51.928Z,1.20
2023-03-29T02:14:19.354Z,0.50
2023-03-29T02:16:46.406Z,0.40
2023-03-29T02:19:13.654Z,1.02
2023-03-29T02:21:49.509Z,2.30
2023-03-29T02:24:20.451Z,0.65
2023-03-29T02:26:47.776Z,1.05
2023-03-29T02:29:15.044Z,0.60
2023-03-29T02:31:49.006Z,1.55
2023-03-29T02:36:48.865Z,2.40
2023-03-29T02:39:17.811Z,0.40
2023-03-29T02:41:50.036Z,0.50
2023-03-29T02:44:26.275Z,0.65
2023-03-29T02:47:06.683Z,0.88
2023-03-29T02:49:33.352Z,1.42
2023-03-29T02:52:09.241Z,1.55
2023-03-29T02:54:43.090Z,0.68
2023-03-29T02:59:40.845Z,1.10
2023-03-29T03:02:07.565Z,2.78
2023-03-29T03:04:35.711Z,2.25
2023-03-29T03:07:04.744Z,1.00
2023-03-29T03:09:31.876Z,2.10
2023-03-29T03:11:58.549Z,0.95
2023-03-29T03:14:26.536Z,1.40
2023-03-29T03:16:53.186Z,3.47
2023-03-29T03:19:21.574Z,0.70
2023-03-29T03:21:48.177Z,18.35
2023-03-29T03:24:15.690Z,3.42
2023-03-29T03:26:42.374Z,1.80
2023-03-29T03:29:09.006Z,1.15
2023-03-29T03:31:37.064Z,1.25
2023-03-29T03:34:05.668Z,2.08
2023-03-29T03:36:34.667Z,1.35
2023-03-29T03:39:02.714Z,2.45
2023-03-29T03:41:29.383Z,2.83
2023-03-29T03:43:56.125Z,2.90
2023-03-29T03:46:22.755Z,2.03
2023-03-29T03:48:50.814Z,3.63
2023-03-29T03:51:19.086Z,2.65
2023-03-29T03:53:45.834Z,1.80
2023-03-29T03:56:13.569Z,0.82
2023-03-29T03:58:41.245Z,3.25
2023-03-29T04:01:08.925Z,5.43
2023-03-29T04:03:37.622Z,1.05
2023-03-29T04:06:05.184Z,1.88
2023-03-29T04:08:32.066Z,1.27
2023-03-29T04:11:00.128Z,1.67
2023-03-29T04:13:27.699Z,1.13
2023-03-29T04:15:58.233Z,2.45
2023-03-29T04:18:27.678Z,3.20
2023-03-29T04:20:54.570Z,1.50
2023-03-29T04:23:21.278Z,2.08
2023-03-29T04:25:49.201Z,2.78
2023-03-29T04:28:16.216Z,6.82
2023-03-29T04:30:42.910Z,2.80
2023-03-29T04:33:10.403Z,3.63
2023-03-29T04:35:37.904Z,3.45
2023-03-29T04:38:04.614Z,4.75
2023-03-29T04:40:31.718Z,3.42
2023-03-29T04:43:00.140Z,6.55
2023-03-29T04:45:27.391Z,2.45
2023-03-29T04:47:57.169Z,4.10
2023-03-29T04:50:25.227Z,2.40
2023-03-29T04:52:53.284Z,6.38
2023-03-29T04:55:20.336Z,4.65
2023-03-29T04:57:47.346Z,2.47
2023-03-29T05:00:15.728Z,2.42
2023-03-29T05:02:46.188Z,2.67
2023-03-29T05:05:13.962Z,1.85
2023-03-29T05:07:40.978Z,3.50
2023-03-29T05:10:08.485Z,4.95
2023-03-29T05:12:36.840Z,5.82
2023-03-29T05:15:08.159Z,8.70
2023-03-29T05:17:36.224Z,4.32
2023-03-29T05:20:09.265Z,10.18
2023-03-29T05:22:36.661Z,5.50
2023-03-29T05:25:03.548Z,16.35
2023-03-29T05:27:30.813Z,13.55
2023-03-29T05:29:58.896Z,21.98
2023-03-29T05:32:25.789Z,13.60
2023-03-29T05:34:52.977Z,16.17
2023-03-29T05:37:19.729Z,10.77
2023-03-29T05:39:46.446Z,14.45
2023-03-29T05:42:15.743Z,12.13
2023-03-29T05:44:43.713Z,15.38
2023-03-29T05:47:11.746Z,11.75
2023-03-29T05:49:39.668Z,25.65
2023-03-29T05:52:06.774Z,7.65
2023-03-29T05:54:34.666Z,6.63
2023-03-29T05:57:01.758Z,6.97
2023-03-29T05:59:29.791Z,11.95
2023-03-29T06:01:56.783Z,11.07
2023-03-29T06:04:24.586Z,8.68
2023-03-29T06:06:53.058Z,8.23
2023-03-29T06:09:19.992Z,6.60
2023-03-29T06:11:46.654Z,17.55
2023-03-29T06:14:17.580Z,14.90
2023-03-29T06:16:46.294Z,15.32
2023-03-29T06:19:14.201Z,19.15
2023-03-29T06:21:42.525Z,11.65
2023-03-29T06:24:09.429Z,5.47
2023-03-29T06:26:37.184Z,15.65
2023-03-29T06:29:04.327Z,9.30
2023-03-29T06:31:31.428Z,7.57
2023-03-29T06:33:58.411Z,8.23
2023-03-29T06:36:25.942Z,4.22
2023-03-29T06:38:52.727Z,3.28
2023-03-29T06:41:21.507Z,7.40
2023-03-29T06:43:48.168Z,4.20
2023-03-29T06:46:16.271Z,13.82
2023-03-29T06:48:42.985Z,4.78
2023-03-29T06:51:09.611Z,7.15
2023-03-29T06:53:38.086Z,7.85
2023-03-29T06:56:10.377Z,6.10
2023-03-29T06:58:37.218Z,2.70
2023-03-29T07:01:04.272Z,6.03
2023-03-29T07:03:31.628Z,6.97
2023-03-29T07:06:09.710Z,2.83
2023-03-29T07:08:43.507Z,7.65
2023-03-29T07:11:15.139Z,5.68
2023-03-29T07:13:43.089Z,3.10
2023-03-29T07:16:14.690Z,4.55
2023-03-29T07:18:43.076Z,6.45
2023-03-29T07:21:13.815Z,7.55
2023-03-29T07:23:41.018Z,3.92
2023-03-29T07:26:09.373Z,8.05
2023-03-29T07:28:39.572Z,22.02
2023-03-29T07:31:12.200Z,11.30
2023-03-29T07:33:39.368Z,9.23
2023-03-29T07:36:06.959Z,5.13
2023-03-29T07:38:35.232Z,7.80
2023-03-29T07:41:04.857Z,4.90
2023-03-29T07:43:32.254Z,11.10
2023-03-29T07:46:03.124Z,4.05
2023-03-29T07:48:30.233Z,1.95
2023-03-29T07:50:57.389Z,2.65
2023-03-29T07:53:24.382Z,2.92
2023-03-29T07:55:53.865Z,3.47
2023-03-29T07:58:22.972Z,1.20
2023-03-29T08:00:50.764Z,2.03
2023-03-29T08:03:17.801Z,4.70
2023-03-29T08:05:45.100Z,5.93
2023-03-29T08:08:12.432Z,4.88
2023-03-29T08:10:39.697Z,2.63
2023-03-29T08:13:08.444Z,1.67
2023-03-29T08:15:40.116Z,4.22
2023-03-29T08:18:07.958Z,3.22
2023-03-29T08:20:34.730Z,6.03
2023-03-29T08:23:01.849Z,2.10
2023-03-29T08:25:28.464Z,4.13
2023-03-29T08:27:55.156Z,3.92
2023-03-29T08:30:22.059Z,4.43
2023-03-29T08:32:52.177Z,2.03
2023-03-29T08:35:20.408Z,2.03
2023-03-29T08:37:47.001Z,2.47
2023-03-29T08:40:22.904Z,9.35
2023-03-29T08:43:15.913Z,10.32
2023-03-29T08:45:52.777Z,2.55
2023-03-29T08:48:43.807Z,1.08
2023-03-29T08:51:23.606Z,6.28
2023-03-29T08:53:59.835Z,5.90
2023-03-29T08:56:34.612Z,0.73
2023-03-29T08:59:03.360Z,5.40
2023-03-29T09:01:35.391Z,0.63
2023-03-29T09:04:14.823Z,4.57
2023-03-29T09:06:41.656Z,1.83
2023-03-29T09:09:30.644Z,1.45
2023-03-29T09:12:26.096Z,4.70
2023-03-29T09:14:58.000Z,1.80
2023-03-29T09:17:34.250Z,1.45
2023-03-29T09:20:19.639Z,3.40
2023-03-29T09:23:01.734Z,1.90
2023-03-29T09:26:03.340Z,3.85
2023-03-29T09:28:55.615Z,3.63
2023-03-29T09:31:28.558Z,1.17
2023-03-29T09:34:02.044Z,1.83
2023-03-29T09:36:48.843Z,5.38
2023-03-29T09:39:16.730Z,5.70
2023-03-29T09:41:59.765Z,1.15
2023-03-29T09:44:32.479Z,1.52
2023-03-29T09:47:25.623Z,1.85
2023-03-29T09:49:59.110Z,2.35
2023-03-29T09:52:25.846Z,4.30
2023-03-29T09:54:52.734Z,2.83
2023-03-29T09:57:20.822Z,1.63
2023-03-29T09:59:50.882Z,4.10
2023-03-29T10:02:21.170Z,1.42
2023-03-29T10:05:02.002Z,1.10
2023-03-29T10:07:44.580Z,2.00
2023-03-29T10:10:29.922Z,1.17
2023-03-29T10:13:04.087Z,3.30
2023-03-29T10:15:31.604Z,0.60
2023-03-29T10:18:08.500Z,2.00
2023-03-29T10:20:36.558Z,3.67
2023-03-29T10:23:06.741Z,0.70
2023-03-29T10:25:38.776Z,3.70
2023-03-29T10:28:17.646Z,2.20
2023-03-29T10:30:52.446Z,1.88
2023-03-29T10:33:25.258Z,1.73
2023-03-29T10:35:52.183Z,4.30
2023-03-29T10:38:22.957Z,1.20
2023-03-29T10:40:53.151Z,2.03
2023-03-29T10:43:19.773Z,1.58
2023-03-29T10:45:51.813Z,2.55
2023-03-29T10:48:19.518Z,1.75
2023-03-29T10:50:53.022Z,3.00
2023-03-29T10:53:29.202Z,1.17
2023-03-29T10:56:15.693Z,0.98
2023-03-29T10:58:50.028Z,1.42
2023-03-29T11:01:44.668Z,0.55
2023-03-29T11:04:38.495Z,1.63
2023-03-29T11:07:22.584Z,2.20
2023-03-29T11:10:11.172Z,1.02
2023-03-29T11:12:52.102Z,0.60
2023-03-29T11:15:33.857Z,1.05
2023-03-29T11:18:19.257Z,3.60
2023-03-29T11:20:51.527Z,0.60
2023-03-29T11:23:39.875Z,0.90
2023-03-29T11:26:43.350Z,1.83
2023-03-29T11:29:21.957Z,3.47
2023-03-29T11:32:08.573Z,0.80
2023-03-29T11:34:35.150Z,0.70
2023-03-29T11:37:28.647Z,1.13
2023-03-29T11:40:07.588Z,1.65
2023-03-29T11:42:39.029Z,0.60
2023-03-29T11:45:12.119Z,1.42
2023-03-29T11:47:41.953Z,2.00
2023-03-29T11:50:19.874Z,1.48
2023-03-29T11:52:54.384Z,0.70
2023-03-29T11:58:13.685Z,1.75
2023-03-29T12:00:44.718Z,1.17
2023-03-29T12:03:16.448Z,1.33
2023-03-29T12:05:50.304Z,0.60
2023-03-29T12:08:29.259Z,1.85
2023-03-29T12:11:24.022Z,2.15
2023-03-29T12:13:57.334Z,1.90
2023-03-29T12:16:47.153Z,1.30
2023-03-29T12:19:23.432Z,1.65
2023-03-29T12:21:51.879Z,2.13
2023-03-29T12:24:21.993Z,1.00
2023-03-29T12:26:57.827Z,1.05
2023-03-29T12:30:03.105Z,3.25
2023-03-29T12:33:03.924Z,0.93
2023-03-29T12:35:41.478Z,5.40
2023-03-29T12:38:22.392Z,1.10
2023-03-29T12:40:57.622Z,1.15
2023-03-29T12:43:39.617Z,1.05
2023-03-29T12:46:22.920Z,1.50
2023-03-29T12:48:53.166Z,2.03
2023-03-29T12:51:31.648Z,1.90
2023-03-29T12:54:10.454Z,0.70
2023-03-29T12:57:01.517Z,11.48
2023-03-29T12:59:35.305Z,4.00
2023-03-29T13:02:36.277Z,5.43
2023-03-29T13:05:05.609Z,2.88
2023-03-29T13:07:47.442Z,0.70
2023-03-29T13:10:39.514Z,1.33
2023-03-29T13:13:17.195Z,3.58
2023-03-29T13:15:44.901Z,0.80
2023-03-29T13:18:24.241Z,2.05
2023-03-29T13:21:09.623Z,1.10
2023-03-29T13:24:08.117Z,1.80
2023-03-29T13:27:01.788Z,5.47
2023-03-29T13:29:54.642Z,3.28
2023-03-29T13:32:50.162Z,4.78
2023-03-29T13:35:32.856Z,2.28
2023-03-29T13:38:13.296Z,8.05
2023-03-29T13:40:40.976Z,7.22
2023-03-29T13:43:24.959Z,0.80
2023-03-29T13:46:06.777Z,5.60
2023-03-29T13:48:58.048Z,2.85
2023-03-29T13:51:39.341Z,1.27
2023-03-29T13:54:14.838Z,5.32
2023-03-29T13:57:10.166Z,6.35
2023-03-29T13:59:59.110Z,1.08
2023-03-29T14:02:41.045Z,3.13
2023-03-29T14:05:12.829Z,1.48
2023-03-29T14:07:50.899Z,0.60
2023-03-29T14:10:34.951Z,3.30
2023-03-29T14:13:04.160Z,21.13
2023-03-29T14:15:54.178Z,5.45
2023-03-29T14:18:26.527Z,1.52
2023-03-29T14:20:56.193Z,0.70
2023-03-29T14:23:25.660Z,14.75
2023-03-29T14:25:52.354Z,13.20
2023-03-29T14:28:30.753Z,14.60
2023-03-29T14:30:57.377Z,8.55
2023-03-29T14:33:43.277Z,12.35
2023-03-29T14:36:16.629Z,1.20
2023-03-29T14:38:49.835Z,3.10
2023-03-29T14:41:17.586Z,13.07
2023-03-29T14:43:46.513Z,2.50
2023-03-29T14:46:17.450Z,4.57
2023-03-29T14:48:44.560Z,1.08
2023-03-29T14:51:11.365Z,0.93
2023-03-29T14:53:39.594Z,1.17
2023-03-29T14:56:12.332Z,1.52
2023-03-29T14:58:40.244Z,8.55
2023-03-29T15:01:16.304Z,3.78
2023-03-29T15:03:45.081Z,3.63
2023-03-29T15:06:13.244Z,1.48
2023-03-29T15:08:48.204Z,3.25
2023-03-29T15:11:28.887Z,3.97
2023-03-29T15:14:02.062Z,2.53
2023-03-29T15:16:32.905Z,3.70
2023-03-29T15:19:01.933Z,1.13
2023-03-29T15:21:33.140Z,0.98
2023-03-29T15:24:02.393Z,1.35
2023-03-29T15:26:39.344Z,0.77
2023-03-29T15:29:23.734Z,2.47
2023-03-29T15:31:57.700Z,2.22
2023-03-29T15:34:32.139Z,2.97
2023-03-29T15:36:59.511Z,1.80
2023-03-29T15:39:27.917Z,1.90
2023-03-29T15:41:56.870Z,3.17
2023-03-29T15:44:29.069Z,2.70
2023-03-29T15:46:57.989Z,6.93
2023-03-29T15:49:25.126Z,2.45
2023-03-29T15:51:54.022Z,1.20
2023-03-29T15:54:22.968Z,0.82
2023-03-29T15:56:57.319Z,2.70
2023-03-29T15:59:25.597Z,5.13
2023-03-29T16:01:54.455Z,1.00
2023-03-29T16:04:22.541Z,3.20
2023-03-29T16:06:52.938Z,0.98
2023-03-29T16:09:21.459Z,1.33
2023-03-29T16:11:48.954Z,0.93
2023-03-29T16:14:18.271Z,1.45
2023-03-29T16:16:44.941Z,4.03
2023-03-29T16:19:11.657Z,1.27
2023-03-29T16:21:38.394Z,1.42
2023-03-29T16:24:06.143Z,3.83
2023-03-29T16:26:34.310Z,2.05
2023-03-29T16:29:01.001Z,4.40
2023-03-29T16:31:28.947Z,5.75
2023-03-29T16:33:55.785Z,3.63
2023-03-29T16:36:22.521Z,1.33
2023-03-29T16:38:49.185Z,1.88
2023-03-29T16:41:17.382Z,2.55
2023-03-29T16:43:44.272Z,3.78
2023-03-29T16:46:11.777Z,3.80
2023-03-29T16:48:38.795Z,9.18
2023-03-29T16:51:07.031Z,1.75
2023-03-29T16:53:34.492Z,3.28
2023-03-29T16:56:02.643Z,8.40
2023-03-29T16:58:29.954Z,1.00
2023-03-29T17:00:57.188Z,3.05
2023-03-29T17:03:24.299Z,3.80
2023-03-29T17:05:54.781Z,14.50
2023-03-29T17:08:22.014Z,19.88
2023-03-29T17:10:54.993Z,11.23
2023-03-29T17:13:26.046Z,11.75
2023-03-29T17:15:54.465Z,17.83
2023-03-29T17:18:22.843Z,14.80
2023-03-29T17:20:56.033Z,20.52
2023-03-29T17:23:24.166Z,15.15
2023-03-29T17:25:51.059Z,6.45
2023-03-29T17:28:18.946Z,1.13
2023-03-29T17:30:46.346Z,14.40
2023-03-29T17:33:14.754Z,4.53
2023-03-29T17:35:44.192Z,0.52
2023-03-29T17:38:11.791Z,20.67
2023-03-29T17:40:39.632Z,8.02
2023-03-29T17:43:06.251Z,22.55
2023-03-29T17:45:35.248Z,30.73
2023-03-29T17:48:05.601Z,27.00
2023-03-29T17:50:33.060Z,6.15
2023-03-29T17:52:59.744Z,20.95
2023-03-29T17:55:26.506Z,19.73
2023-03-29T17:57:53.721Z,9.30
2023-03-29T18:00:20.933Z,9.82
2023-03-29T18:02:47.687Z,9.23
2023-03-29T18:05:14.729Z,26.17
2023-03-29T18:07:41.477Z,14.93
2023-03-29T18:10:08.378Z,3.10
2023-03-29T18:12:34.985Z,1.40
2023-03-29T18:15:01.741Z,2.60
2023-03-29T18:17:28.486Z,12.75
2023-03-29T18:19:55.328Z,4.68
2023-03-29T18:22:23.986Z,10.00
2023-03-29T18:24:51.127Z,12.50
2023-03-29T18:27:18.435Z,12.15
2023-03-29T18:29:45.156Z,11.77
2023-03-29T18:32:12.122Z,31.95
2023-03-29T18:34:39.390Z,25.13
2023-03-29T18:37:07.419Z,16.23
2023-03-29T18:39:34.752Z,12.00
2023-03-29T18:42:02.145Z,3.72
2023-03-29T18:44:29.098Z,12.32
2023-03-29T18:46:56.333Z,9.32
2023-03-29T18:49:25.028Z,18.35
2023-03-29T18:51:51.890Z,4.53
2023-03-29T18:54:18.597Z,19.08
2023-03-29T18:56:45.703Z,10.65
2023-03-29T18:59:14.175Z,3.28
2023-03-29T19:01:41.278Z,2.92
2023-03-29T19:04:08.094Z,7.20
2023-03-29T19:06:34.800Z,4.85
2023-03-29T19:09:04.197Z,6.65
2023-03-29T19:11:32.959Z,7.55
2023-03-29T19:14:00.889Z,2.75
2023-03-29T19:16:27.666Z,5.70
2023-03-29T19:18:54.576Z,2.20
2023-03-29T19:21:21.205Z,7.15
2023-03-29T19:23:51.737Z,1.55
2023-03-29T19:26:18.471Z,7.03
2023-03-29T19:28:46.397Z,8.00
2023-03-29T19:31:13.141Z,1.10
2023-03-29T19:33:42.032Z,1.45
2023-03-29T19:36:09.944Z,1.45
2023-03-29T19:38:36.723Z,5.90
2023-03-29T19:41:11.218Z,7.88
2023-03-29T19:43:37.814Z,8.85
2023-03-29T19:46:11.758Z,4.93
2023-03-29T19:48:39.406Z,8.45
2023-03-29T19:51:06.165Z,0.60
2023-03-29T19:53:33.621Z,1.45
2023-03-29T19:56:02.150Z,6.38
2023-03-29T19:58:29.417Z,4.40
2023-03-29T20:01:00.654Z,4.00
2023-03-29T20:03:28.485Z,7.32
2023-03-29T20:05:58.080Z,6.53
2023-03-29T20:08:24.903Z,2.28
2023-03-29T20:10:59.349Z,1.48
2023-03-29T20:13:38.257Z,1.15
2023-03-29T20:16:18.450Z,8.52
2023-03-29T20:18:46.587Z,1.25
2023-03-29T20:21:16.700Z,0.55
2023-03-29T20:23:44.154Z,1.27
2023-03-29T20:26:10.862Z,3.53
2023-03-29T20:28:40.506Z,0.70
2023-03-29T20:31:12.126Z,0.70
2023-03-29T20:33:39.272Z,0.98
2023-03-29T20:36:07.830Z,10.45
2023-03-29T20:38:35.450Z,0.55
2023-03-29T20:41:04.190Z,1.08
2023-03-29T20:43:38.251Z,1.25
2023-03-29T20:46:14.293Z,4.22
2023-03-29T20:48:54.064Z,0.50
2023-03-29T20:51:28.040Z,3.60
2023-03-29T20:54:02.272Z,3.28
2023-03-29T20:56:31.081Z,7.05
2023-03-29T20:58:58.972Z,3.03
2023-03-29T21:01:28.982Z,0.50
2023-03-29T21:03:55.811Z,0.88
2023-03-29T21:06:25.507Z,2.80
2023-03-29T21:08:52.694Z,4.85
2023-03-29T21:11:21.986Z,1.55
2023-03-29T21:13:48.631Z,0.95
2023-03-29T21:16:17.444Z,3.08
2023-03-29T21:18:45.320Z,2.13
2023-03-29T21:21:12.431Z,1.55
2023-03-29T21:23:39.798Z,1.10
2023-03-29T21:26:09.739Z,0.60
2023-03-29T21:28:37.677Z,0.75
2023-03-29T21:31:07.577Z,3.80
2023-03-29T21:33:35.143Z,1.63
2023-03-29T21:36:03.270Z,1.33
2023-03-29T21:38:31.151Z,1.67
2023-03-29T21:40:59.175Z,1.50
2023-03-29T21:43:26.878Z,4.22
2023-03-29T21:45:53.566Z,0.57
2023-03-29T21:48:21.185Z,2.97
2023-03-29T21:50:51.140Z,0.60
2023-03-29T21:53:18.417Z,0.85
2023-03-29T21:55:47.826Z,1.83
2023-03-29T21:58:14.691Z,0.90
2023-03-29T22:00:41.704Z,0.93
2023-03-29T22:03:08.511Z,1.58
2023-03-29T22:05:35.506Z,0.40
2023-03-29T22:08:02.719Z,2.63
2023-03-29T22:10:29.715Z,2.88
2023-03-29T22:12:57.075Z,0.35
2023-03-29T22:15:24.954Z,0.35
2023-03-29T22:17:53.406Z,0.57
2023-03-29T22:20:20.886Z,1.08
2023-03-29T22:22:50.112Z,1.88
2023-03-29T22:25:18.548Z,2.75
2023-03-29T22:27:47.512Z,1.85
2023-03-29T22:30:15.069Z,0.75
2023-03-29T22:32:41.950Z,1.40
2023-03-29T22:35:09.256Z,0.73
2023-03-29T22:37:43.404Z,1.90
2023-03-29T22:40:12.142Z,0.30
2023-03-29T22:42:39.863Z,0.68
2023-03-29T22:45:08.574Z,5.43
2023-03-29T22:47:35.445Z,1.00
2023-03-29T22:50:02.230Z,1.77
2023-03-29T22:52:28.923Z,0.75
2023-03-29T22:54:55.638Z,1.60
2023-03-29T22:57:22.696Z,0.52
2023-03-29T22:59:49.877Z,0.47
2023-03-29T23:02:16.518Z,0.80
2023-03-29T23:04:45.378Z,0.70
2023-03-29T23:07:12.318Z,0.50
2023-03-29T23:09:38.969Z,0.98
2023-03-29T23:12:07.232Z,0.95
2023-03-29T23:14:33.996Z,1.10
2023-03-29T23:17:00.685Z,0.57
2023-03-29T23:19:27.496Z,1.17
2023-03-29T23:21:55.726Z,5.32
2023-03-29T23:24:22.873Z,2.10
2023-03-29T23:26:50.761Z,3.30
2023-03-29T23:29:17.436Z,1.65
2023-03-29T23:31:44.474Z,7.22
2023-03-29T23:34:11.195Z,0.75
2023-03-29T23:36:37.960Z,1.05
2023-03-29T23:39:07.950Z,0.70
2023-03-29T23:41:34.564Z,0.60
2023-03-29T23:44:01.277Z,5.88
2023-03-29T23:46:27.916Z,6.07
2023-03-29T23:48:54.701Z,0.50
2023-03-29T23:51:23.275Z,0.85
2023-03-29T23:53:50.341Z,0.82
2023-03-29T23:56:18.769Z,0.68
2023-03-29T23:58:46.185Z,1.45
